Time;durP1;ratioP1;P1;durP2;ratioP2;P2;SDS_P1;SDS_P2;PMS_P1;PMS_P2;Temp;Humidity;BMP_temperature;BMP_pressure;BME280_temperature;BME280_humidity;BME280_pressure;Samples;Min_cycle;Max_cycle;Signal;HPM_P1;HPM_P2
2021/01/22 00:01:44;;;;;;;0.40;0.35;;;;;;;27.84;26.33;94616.38;5052861;28;20039;-36
2021/01/22 00:04:10;;;;;;;3.55;0.60;;;;;;;27.83;26.31;94602.38;5056971;28;20029;-39
2021/01/22 00:06:36;;;;;;;0.88;0.57;;;;;;;27.84;26.37;94609.28;5059735;28;20115;-41
2021/01/22 00:09:01;;;;;;;0.82;0.55;;;;;;;27.84;26.32;94604.03;5048117;28;20040;-37
2021/01/22 00:11:26;;;;;;;0.68;0.60;;;;;;;27.84;26.36;94608.47;5050720;28;20028;-41
2021/01/22 00:13:52;;;;;;;3.92;0.60;;;;;;;27.84;26.36;94592.69;5045489;28;20043;-44
2021/01/22 00:16:17;;;;;;;0.68;0.50;;;;;;;27.84;26.29;94595.31;5050271;28;20640;-36
2021/01/22 00:18:43;;;;;;;0.50;0.50;;;;;;;27.83;26.35;94597.13;5054654;28;20032;-35
2021/01/22 00:21:09;;;;;;;0.75;0.57;;;;;;;27.83;26.32;94597.13;5055816;28;20129;-40
2021/01/22 00:23:38;;;;;;;0.98;0.55;;;;;;;27.82;26.38;94590.19;5059749;28;20378;-37
2021/01/22 00:26:06;;;;;;;0.70;0.50;;;;;;;27.83;26.28;94578.69;5053969;28;20032;-36
2021/01/22 00:28:32;;;;;;;0.57;0.40;;;;;;;27.84;26.19;94582.16;5046162;28;20041;-43
2021/01/22 00:30:57;;;;;;;0.50;0.50;;;;;;;27.84;26.29;94571.63;5054010;28;20036;-39
2021/01/22 00:33:23;;;;;;;0.45;0.45;;;;;;;27.83;26.37;94578.69;5063258;28;20040;-36
2021/01/22 00:35:48;;;;;;;0.82;0.40;;;;;;;27.82;26.22;94574.41;5048922;28;20099;-43
2021/01/22 00:38:14;;;;;;;0.77;0.50;;;;;;;27.81;26.47;94567.50;5050281;28;20882;-36
2021/01/22 00:40:39;;;;;;;1.10;0.60;;;;;;;27.81;26.31;94554.34;5050978;28;20047;-43
2021/01/22 00:43:05;;;;;;;1.85;0.50;;;;;;;27.82;26.28;94553.34;5057093;28;20182;-42
2021/01/22 00:45:30;;;;;;;0.40;0.40;;;;;;;27.82;26.34;94548.09;5053931;28;20056;-40
2021/01/22 00:47:56;;;;;;;0.47;0.47;;;;;;;27.82;26.08;94549.88;5061431;28;20043;-38
2021/01/22 00:50:21;;;;;;;0.77;0.50;;;;;;;27.81;26.19;94535.91;5051532;28;20044;-40
2021/01/22 00:52:47;;;;;;;0.52;0.40;;;;;;;27.80;26.18;94528.97;5052202;28;20520;-41
2021/01/22 00:55:13;;;;;;;0.85;0.40;;;;;;;27.80;26.27;94534.25;5043818;28;20794;-37
2021/01/22 00:57:39;;;;;;;0.68;0.57;;;;;;;27.80;26.23;94517.63;5040673;28;20149;-39
2021/01/22 01:00:06;;;;;;;0.60;0.50;;;;;;;27.80;26.09;94513.19;5054111;28;20117;-42
2021/01/22 01:02:31;;;;;;;0.73;0.57;;;;;;;27.79;26.02;94522.06;5026160;28;20040;-41
2021/01/22 01:04:56;;;;;;;0.93;0.40;;;;;;;27.79;26.08;94522.06;5030866;28;20037;-36
2021/01/22 01:07:22;;;;;;;0.50;0.43;;;;;;;27.78;26.04;94525.69;5025235;28;20121;-38
2021/01/22 01:09:48;;;;;;;2.25;0.43;;;;;;;27.77;26.21;94534.56;5031343;28;20729;-34
2021/01/22 01:12:13;;;;;;;0.80;0.40;;;;;;;27.78;26.21;94528.31;5033630;28;20045;-42
2021/01/22 01:14:39;;;;;;;0.57;0.30;;;;;;;27.78;26.12;94536.22;5028512;28;20052;-39
2021/01/22 01:17:04;;;;;;;1.40;0.50;;;;;;;27.77;26.06;94529.28;5045889;28;20032;-37
2021/01/22 01:19:30;;;;;;;0.73;0.50;;;;;;;27.79;26.14;94527.31;5049902;28;20040;-38
2021/01/22 01:21:56;;;;;;;0.57;0.40;;;;;;;27.78;25.99;94533.56;5055526;28;20509;-43
2021/01/22 01:24:21;;;;;;;0.55;0.45;;;;;;;27.77;26.05;94524.03;5045749;28;20150;-39
2021/01/22 01:26:46;;;;;;;0.40;0.40;;;;;;;27.77;26.11;94530.09;5052623;28;20543;-35
2021/01/22 01:29:12;;;;;;;0.40;0.40;;;;;;;27.77;26.13;94529.28;5045824;28;20052;-41
2021/01/22 01:31:37;;;;;;;1.25;0.60;;;;;;;27.76;26.08;94533.72;5055515;28;20068;-42
2021/01/22 01:34:03;;;;;;;0.82;0.47;;;;;;;27.75;26.08;94537.34;5054570;28;20043;-38
2021/01/22 01:36:29;;;;;;;1.23;0.40;;;;;;;27.75;26.11;94528.59;5056704;28;20642;-36
2021/01/22 01:38:56;;;;;;;0.60;0.40;;;;;;;27.77;26.20;94532.72;5050510;28;20032;-37
2021/01/22 01:41:22;;;;;;;0.32;0.32;;;;;;;27.75;26.04;94531.22;5057364;28;20032;-37
2021/01/22 01:43:48;;;;;;;0.52;0.30;;;;;;;27.75;26.15;94531.22;5053559;28;20105;-41
2021/01/22 01:46:14;;;;;;;0.98;0.60;;;;;;;27.75;26.04;94525.97;5054072;28;20036;-41
2021/01/22 01:48:39;;;;;;;4.00;0.52;;;;;;;27.75;26.14;94534.69;5053280;28;20041;-40
2021/01/22 01:51:04;;;;;;;0.68;0.50;;;;;;;27.73;26.08;94528.75;5054527;28;20041;-38
2021/01/22 01:53:30;;;;;;;1.48;0.45;;;;;;;27.75;26.04;94520.72;5059335;28;20043;-40
2021/01/22 01:55:55;;;;;;;0.40;0.40;;;;;;;27.75;26.17;94525.97;5065002;28;20045;-36
2021/01/22 01:58:21;;;;;;;0.80;0.35;;;;;;;27.75;26.28;94523.34;5054583;28;20033;-39
2021/01/22 02:00:46;;;;;;;1.17;0.38;;;;;;;27.74;26.17;94526.94;5053334;28;20044;-37
2021/01/22 02:03:12;;;;;;;0.40;0.40;;;;;;;27.75;26.07;94536.50;5053377;28;20037;-40
2021/01/22 02:05:38;;;;;;;0.95;0.45;;;;;;;27.74;26.21;94529.59;5059579;28;20041;-41
2021/01/22 02:08:04;;;;;;;0.85;0.40;;;;;;;27.73;26.21;94533.19;5053764;28;20051;-34
2021/01/22 02:10:30;;;;;;;0.47;0.28;;;;;;;27.71;26.19;94535.97;5057485;28;20067;-38
2021/01/22 02:12:56;;;;;;;0.30;0.30;;;;;;;27.71;26.21;94535.13;5047911;28;20114;-37
2021/01/22 02:15:21;;;;;;;0.82;0.32;;;;;;;27.71;26.19;94541.22;5065273;28;20151;-39
2021/01/22 02:17:46;;;;;;;0.30;0.30;;;;;;;27.72;26.18;94534.19;5049376;28;20091;-40
2021/01/22 02:20:51;;;;;;;0.55;0.30;;;;;;;27.69;26.13;94540.53;5057611;28;20105;-40
2021/01/22 02:23:17;;;;;;;0.40;0.38;;;;;;;27.70;26.19;94546.63;5045801;28;20059;-37
2021/01/22 02:25:44;;;;;;;2.30;0.40;;;;;;;27.69;26.20;94547.63;5045139;28;20097;-39
2021/01/22 02:28:11;;;;;;;0.40;0.40;;;;;;;27.69;26.21;94553.69;5043202;28;20098;-40
2021/01/22 02:30:36;;;;;;;0.93;0.50;;;;;;;27.70;26.33;94536.13;5046824;28;20045;-44
2021/01/22 02:33:05;;;;;;;0.52;0.32;;;;;;;27.69;26.19;94539.72;5031621;28;20308;-40
2021/01/22 02:35:30;;;;;;;0.63;0.50;;;;;;;27.68;26.21;94535.44;5050968;28;20066;-38
2021/01/22 02:37:56;;;;;;;0.32;0.30;;;;;;;27.69;26.18;94531.84;5052004;28;20040;-38
2021/01/22 02:40:21;;;;;;;0.65;0.45;;;;;;;27.68;26.27;94535.44;5052252;28;20049;-39
2021/01/22 02:42:48;;;;;;;1.45;0.32;;;;;;;27.64;26.15;94535.75;5052656;28;20106;-37
2021/01/22 02:45:15;;;;;;;0.40;0.30;;;;;;;27.65;26.17;94534.75;5053213;28;20083;-43
2021/01/22 02:47:47;;;;;;;0.55;0.40;;;;;;;27.67;26.21;94542.50;5060468;28;20040;-41
2021/01/22 02:50:16;;;;;;;0.25;0.25;;;;;;;27.67;26.10;94539.03;5053917;28;20429;-40
2021/01/22 02:52:42;;;;;;;0.30;0.30;;;;;;;27.67;26.16;94549.56;5049769;28;20721;-41
2021/01/22 02:55:09;;;;;;;0.50;0.35;;;;;;;27.65;26.15;94537.38;5055459;28;20040;-37
2021/01/22 02:57:50;;;;;;;0.40;0.40;;;;;;;27.67;26.14;94545.13;5027094;28;20036;-36
2021/01/22 03:00:25;;;;;;;0.43;0.43;;;;;;;27.65;26.09;94532.13;5055613;28;20051;-37
2021/01/22 03:02:50;;;;;;;1.05;0.40;;;;;;;27.64;26.18;94546.25;5054128;28;20445;-40
2021/01/22 03:05:16;;;;;;;0.90;0.43;;;;;;;27.63;26.28;94539.34;5059011;28;20051;-39
2021/01/22 03:07:44;;;;;;;3.05;0.50;;;;;;;27.63;26.14;94534.09;5052201;28;20079;-37
2021/01/22 03:10:10;;;;;;;0.20;0.20;;;;;;;27.63;26.07;94528.81;5050419;28;20032;-39
2021/01/22 03:12:36;;;;;;;0.55;0.30;;;;;;;27.62;26.15;94531.59;5054805;28;20067;-41
2021/01/22 03:15:02;;;;;;;0.40;0.30;;;;;;;27.63;26.24;94541.16;5056330;28;20496;-37
2021/01/22 03:17:27;;;;;;;0.80;0.40;;;;;;;27.62;26.23;94542.13;5050662;28;20044;-42
2021/01/22 03:19:53;;;;;;;0.50;0.40;;;;;;;27.61;26.26;94536.03;5055200;28;20192;-38
2021/01/22 03:22:19;;;;;;;0.22;0.22;;;;;;;27.62;26.23;94539.50;5043562;28;20121;-39
2021/01/22 03:24:45;;;;;;;1.85;0.45;;;;;;;27.61;26.23;94541.28;5057848;28;20044;-38
2021/01/22 03:27:10;;;;;;;0.28;0.25;;;;;;;27.61;26.18;94543.91;5045713;28;20152;-40
2021/01/22 03:29:36;;;;;;;0.20;0.20;;;;;;;27.61;26.21;94529.97;5052590;28;20400;-39
2021/01/22 03:32:02;;;;;;;0.75;0.40;;;;;;;27.60;26.23;94538.78;5051303;28;20067;-38
2021/01/22 03:34:28;;;;;;;0.70;0.32;;;;;;;27.60;26.23;94534.34;5053864;28;20051;-37
2021/01/22 03:36:57;;;;;;;0.32;0.30;;;;;;;27.60;26.19;94538.78;5055472;28;20047;-43
2021/01/22 03:39:23;;;;;;;0.20;0.20;;;;;;;27.59;26.25;94543.22;5056387;28;20266;-37
2021/01/22 03:41:49;;;;;;;0.40;0.30;;;;;;;27.58;26.21;94536.28;5052055;28;20143;-42
2021/01/22 03:44:16;;;;;;;0.32;0.30;;;;;;;27.59;26.20;94527.44;5052940;28;20047;-38
2021/01/22 03:46:42;;;;;;;0.55;0.35;;;;;;;27.59;26.12;94527.44;5050894;28;20043;-37
2021/01/22 03:49:08;;;;;;;0.52;0.40;;;;;;;27.57;26.23;94524.09;5055525;28;20125;-41
2021/01/22 03:51:34;;;;;;;1.40;0.30;;;;;;;27.58;26.22;94514.44;5059700;28;20044;-39
2021/01/22 03:53:59;;;;;;;1.08;0.40;;;;;;;27.58;26.16;94520.50;5053125;28;20667;-41
2021/01/22 03:56:25;;;;;;;0.45;0.30;;;;;;;27.56;26.15;94522.47;5059928;28;20037;-37
2021/01/22 03:58:51;;;;;;;0.15;0.13;;;;;;;27.56;26.16;94516.38;5059138;28;20490;-40
2021/01/22 04:01:19;;;;;;;0.20;0.20;;;;;;;27.56;26.16;94517.19;5053613;28;20588;-40
2021/01/22 04:03:45;;;;;;;0.57;0.32;;;;;;;27.56;26.11;94505.84;5059395;28;20037;-41
2021/01/22 04:06:11;;;;;;;0.20;0.20;;;;;;;27.55;26.16;94512.91;5047657;28;20518;-40
2021/01/22 04:08:37;;;;;;;0.30;0.30;;;;;;;27.55;26.16;94510.28;5055234;28;20119;-37
2021/01/22 04:11:02;;;;;;;0.28;0.28;;;;;;;27.56;26.17;94509.31;5059472;28;20048;-35
2021/01/22 04:13:28;;;;;;;0.32;0.20;;;;;;;27.55;26.12;94494.50;5054282;28;20071;-40
2021/01/22 04:15:53;;;;;;;0.80;0.20;;;;;;;27.54;26.14;94492.84;5044876;28;20064;-41
2021/01/22 04:18:19;;;;;;;0.50;0.30;;;;;;;27.56;26.20;94498.78;5049198;28;20036;-43
2021/01/22 04:20:45;;;;;;;0.40;0.28;;;;;;;27.55;26.10;94498.94;5047464;28;20036;-39
2021/01/22 04:23:10;;;;;;;1.20;0.40;;;;;;;27.54;26.23;94503.38;5051988;28;20036;-38
2021/01/22 04:25:36;;;;;;;0.30;0.30;;;;;;;27.55;26.13;94497.13;5047635;28;20040;-37
2021/01/22 04:28:02;;;;;;;0.40;0.40;;;;;;;27.54;26.15;94492.84;5042863;28;20037;-37
2021/01/22 04:30:27;;;;;;;0.30;0.30;;;;;;;27.55;26.14;94491.88;5048735;28;20032;-41
2021/01/22 04:32:53;;;;;;;0.20;0.20;;;;;;;27.54;26.22;94487.59;5056088;28;20052;-40
2021/01/22 04:35:18;;;;;;;0.70;0.40;;;;;;;27.54;26.15;94490.22;5052457;28;20052;-35
2021/01/22 04:37:44;;;;;;;0.57;0.30;;;;;;;27.54;26.16;94482.34;5047665;28;20032;-40
2021/01/22 04:40:10;;;;;;;0.20;0.20;;;;;;;27.54;26.28;94477.06;5050248;28;20041;-40
2021/01/22 04:42:39;;;;;;;0.55;0.32;;;;;;;27.53;26.13;94465.72;5043624;28;20123;-41
2021/01/22 04:45:09;;;;;;;0.90;0.30;;;;;;;27.54;26.15;94458.66;5049442;28;20048;-42
2021/01/22 04:47:35;;;;;;;0.35;0.30;;;;;;;27.54;26.31;94461.28;5028383;28;20080;-35
2021/01/22 04:50:01;;;;;;;0.20;0.20;;;;;;;27.54;26.24;94450.78;5034197;28;20037;-40
2021/01/22 04:52:27;;;;;;;1.35;0.40;;;;;;;27.53;26.22;94443.84;5037483;28;20143;-34
2021/01/22 04:54:52;;;;;;;0.75;0.35;;;;;;;27.53;26.44;94444.66;5034805;28;20620;-41
2021/01/22 04:57:18;;;;;;;0.35;0.22;;;;;;;27.53;26.24;94435.94;5025987;28;20033;-37
2021/01/22 04:59:49;;;;;;;0.43;0.30;;;;;;;27.52;26.06;94437.75;5034651;28;20120;-38
2021/01/22 05:02:14;;;;;;;0.30;0.27;;;;;;;27.53;26.16;94439.41;5051829;28;20036;-39
2021/01/22 05:04:40;;;;;;;0.43;0.30;;;;;;;27.54;26.10;94442.88;5058658;28;20032;-37
2021/01/22 05:07:07;;;;;;;0.38;0.22;;;;;;;27.53;26.09;94434.16;5054702;28;20448;-40
2021/01/22 05:09:32;;;;;;;0.20;0.20;;;;;;;27.53;26.08;94443.84;5052399;28;20044;-39
2021/01/22 05:11:58;;;;;;;0.52;0.25;;;;;;;27.52;25.94;94429.03;5049736;28;20040;-40
2021/01/22 05:14:24;;;;;;;0.70;0.40;;;;;;;27.52;26.07;94431.66;5052101;28;20041;-37
2021/01/22 05:17:22;;;;;;;0.63;0.22;;;;;;;27.51;26.07;94424.75;5048624;28;20051;-37
2021/01/22 05:19:50;;;;;;;0.30;0.30;;;;;;;27.52;26.09;94423.78;5030016;28;20036;-38
2021/01/22 05:22:17;;;;;;;1.17;0.32;;;;;;;27.52;26.14;94429.03;5052090;28;20523;-38
2021/01/22 05:24:43;;;;;;;0.30;0.30;;;;;;;27.52;26.13;94426.41;5060423;28;20047;-38
2021/01/22 05:27:12;;;;;;;0.30;0.30;;;;;;;27.51;26.19;94422.13;5057235;28;20040;-44
2021/01/22 05:29:39;;;;;;;0.95;0.30;;;;;;;27.50;26.08;94428.38;5054291;28;20044;-40
2021/01/22 05:32:23;;;;;;;0.20;0.20;;;;;;;27.51;26.16;94424.75;5057319;28;20581;-37
2021/01/22 05:34:49;;;;;;;0.57;0.30;;;;;;;27.51;26.06;94430.00;5064388;28;20110;-35
2021/01/22 05:37:16;;;;;;;0.28;0.22;;;;;;;27.51;26.10;94422.13;5057454;28;20089;-37
2021/01/22 05:39:41;;;;;;;0.75;0.30;;;;;;;27.50;26.18;94423.09;5072227;28;20048;-34
2021/01/22 05:42:08;;;;;;;0.28;0.20;;;;;;;27.49;26.11;94413.53;5054387;28;20478;-39
2021/01/22 05:44:33;;;;;;;0.55;0.30;;;;;;;27.48;26.17;94414.53;5050906;28;20045;-43
2021/01/22 05:47:05;;;;;;;0.70;0.30;;;;;;;27.49;26.15;94427.53;5049852;28;20195;-41
2021/01/22 05:49:31;;;;;;;0.65;0.30;;;;;;;27.48;26.14;94425.88;5060314;28;20025;-42
2021/01/22 05:51:56;;;;;;;0.65;0.38;;;;;;;27.47;26.12;94418.13;5056829;28;20048;-37
2021/01/22 05:54:38;;;;;;;0.75;0.40;;;;;;;27.48;26.29;94419.78;5057138;28;20093;-39
2021/01/22 05:57:04;;;;;;;0.73;0.40;;;;;;;27.47;26.21;94412.88;5064327;28;20184;-43
2021/01/22 05:59:34;;;;;;;0.15;0.15;;;;;;;27.47;26.20;94416.34;5052816;28;20035;-41
2021/01/22 06:02:21;;;;;;;0.73;0.30;;;;;;;27.45;26.20;94407.75;5051981;28;20048;-39
2021/01/22 06:04:47;;;;;;;0.30;0.30;;;;;;;27.45;26.27;94405.13;5061736;28;20492;-40
2021/01/22 06:07:13;;;;;;;0.55;0.40;;;;;;;27.46;26.31;94395.44;5037938;28;20113;-37
2021/01/22 06:09:38;;;;;;;0.30;0.30;;;;;;;27.46;26.22;94411.22;5057621;28;20136;-38
2021/01/22 06:12:04;;;;;;;0.22;0.20;;;;;;;27.45;26.24;94405.13;5070798;28;20049;-37
2021/01/22 06:14:34;;;;;;;3.13;0.35;;;;;;;27.46;26.15;94400.72;5049269;28;20045;-41
2021/01/22 06:17:02;;;;;;;0.35;0.22;;;;;;;27.44;26.21;94394.75;5044913;28;20028;-38
2021/01/22 06:19:28;;;;;;;0.85;0.30;;;;;;;27.45;26.29;94396.41;5051635;28;20051;-40
2021/01/22 06:22:28;;;;;;;0.25;0.25;;;;;;;27.45;26.27;94399.03;5051253;28;20049;-41
2021/01/22 06:24:53;;;;;;;0.47;0.30;;;;;;;27.43;26.18;94395.75;5043825;28;20119;-41
2021/01/22 06:27:18;;;;;;;0.35;0.20;;;;;;;27.44;26.21;94397.38;5041752;28;20048;-38
2021/01/22 06:29:44;;;;;;;0.17;0.17;;;;;;;27.42;26.38;94394.09;5072655;28;20466;-36
2021/01/22 06:32:10;;;;;;;1.35;0.45;;;;;;;27.42;26.38;94405.44;5047679;28;20051;-38
2021/01/22 06:34:36;;;;;;;0.28;0.20;;;;;;;27.41;26.29;94403.78;5047140;28;20036;-41
2021/01/22 06:37:02;;;;;;;0.47;0.30;;;;;;;27.43;26.32;94403.63;5051403;28;20041;-40
2021/01/22 06:39:28;;;;;;;1.38;0.50;;;;;;;27.42;26.25;94407.25;5056911;28;20067;-38
2021/01/22 06:41:54;;;;;;;0.20;0.20;;;;;;;27.41;26.01;94408.22;5066790;28;20059;-40
2021/01/22 06:44:19;;;;;;;0.10;0.10;;;;;;;27.41;26.27;94408.22;5048863;28;20102;-38
2021/01/22 06:46:44;;;;;;;0.88;0.30;;;;;;;27.41;26.34;94416.13;5053123;28;20040;-39
2021/01/22 06:49:10;;;;;;;0.25;0.20;;;;;;;27.42;26.40;94415.13;5071746;28;20052;-40
2021/01/22 06:51:37;;;;;;;0.40;0.25;;;;;;;27.42;26.29;94415.13;5063246;28;20040;-40
2021/01/22 06:54:13;;;;;;;0.35;0.30;;;;;;;27.42;26.17;94413.31;5052881;28;20071;-37
2021/01/22 06:56:58;;;;;;;0.50;0.25;;;;;;;27.43;26.29;94416.78;5051707;28;21753;-40
2021/01/22 06:59:25;;;;;;;0.20;0.20;;;;;;;27.42;26.21;94409.88;5047207;28;20050;-36
2021/01/22 07:01:51;;;;;;;2.47;0.32;;;;;;;27.43;26.24;94412.34;5052531;28;20040;-38
2021/01/22 07:04:29;;;;;;;0.10;0.10;;;;;;;27.43;26.31;94406.25;5059726;28;20053;-39
2021/01/22 07:06:56;;;;;;;0.40;0.28;;;;;;;27.42;26.24;94410.69;5057139;28;20525;-38
2021/01/22 07:09:22;;;;;;;0.10;0.10;;;;;;;27.42;26.22;94409.88;5061737;28;20032;-38
2021/01/22 07:11:51;;;;;;;0.35;0.25;;;;;;;27.43;26.26;94422.03;5057994;28;20036;-39
2021/01/22 07:14:34;;;;;;;0.45;0.20;;;;;;;27.43;26.31;94419.41;5050912;28;20040;-35
2021/01/22 07:17:04;;;;;;;0.32;0.20;;;;;;;27.42;26.28;94415.13;5051132;28;20038;-37
2021/01/22 07:19:31;;;;;;;0.63;0.30;;;;;;;27.43;26.22;94416.78;5043596;28;20133;-43
2021/01/22 07:21:56;;;;;;;0.30;0.20;;;;;;;27.42;26.28;94415.13;5054348;28;20040;-39
2021/01/22 07:24:21;;;;;;;0.20;0.20;;;;;;;27.42;26.40;94415.13;5062817;28;20040;-37
2021/01/22 07:26:48;;;;;;;0.75;0.43;;;;;;;27.42;26.31;94409.88;5053240;28;20041;-40
2021/01/22 07:29:18;;;;;;;5.32;0.30;;;;;;;27.43;26.24;94416.78;5050372;28;20110;-44
2021/01/22 07:31:55;;;;;;;0.20;0.20;;;;;;;27.43;26.13;94411.53;5050242;28;20612;-40
2021/01/22 07:34:36;;;;;;;13.48;0.75;;;;;;;27.42;26.26;94409.88;5059024;28;20041;-37
2021/01/22 07:37:02;;;;;;;16.63;0.50;;;;;;;27.43;26.23;94414.16;5054407;28;20512;-40
2021/01/22 07:39:28;;;;;;;1.25;0.30;;;;;;;27.43;26.28;94412.34;5056184;28;20390;-40
2021/01/22 07:42:08;;;;;;;6.75;0.90;;;;;;;27.41;26.87;94408.22;5048354;28;20056;-36
2021/01/22 07:44:34;;;;;;;1.95;0.63;;;;;;;27.42;26.58;94415.13;5047736;28;20060;-38
2021/01/22 07:47:00;;;;;;;6.20;0.60;;;;;;;27.42;26.41;94420.41;5050828;28;20712;-38
2021/01/22 07:49:26;;;;;;;1.50;0.45;;;;;;;27.43;26.46;94419.41;5047109;28;20036;-41
2021/01/22 07:51:51;;;;;;;5.93;0.57;;;;;;;27.45;26.46;94417.44;5051713;28;20051;-38
2021/01/22 07:54:16;;;;;;;1.58;0.50;;;;;;;27.49;26.41;94429.31;5046873;28;20150;-41
2021/01/22 07:56:42;;;;;;;3.88;0.40;;;;;;;27.48;26.58;94420.63;5045035;28;20037;-41
2021/01/22 07:59:10;;;;;;;3.45;0.50;;;;;;;27.51;26.44;94422.13;5048503;28;20037;-40
2021/01/22 08:01:36;;;;;;;1.75;0.50;;;;;;;27.52;26.42;94413.25;5049372;28;20040;-38
2021/01/22 08:04:02;;;;;;;2.88;0.43;;;;;;;27.54;26.46;94411.31;5050083;28;20641;-41
2021/01/22 08:06:28;;;;;;;1.88;0.65;;;;;;;27.55;26.39;94410.31;5049954;28;20063;-44
2021/01/22 08:09:06;;;;;;;3.80;0.75;;;;;;;27.56;26.44;94409.34;5050127;28;20133;-42
2021/01/22 08:11:32;;;;;;;2.83;0.60;;;;;;;27.58;26.51;94409.19;5050137;28;20044;-41
2021/01/22 08:13:58;;;;;;;3.95;0.63;;;;;;;27.59;26.44;94406.41;5047596;28;20089;-42
2021/01/22 08:16:24;;;;;;;7.22;0.52;;;;;;;27.61;26.61;94420.25;5046313;28;20039;-39
2021/01/22 08:18:50;;;;;;;1.65;0.50;;;;;;;27.62;26.30;94421.91;5043077;28;20123;-39
2021/01/22 08:21:16;;;;;;;1.33;0.40;;;;;;;27.63;26.55;94423.59;5047134;28;20044;-43
2021/01/22 08:23:44;;;;;;;0.95;0.38;;;;;;;27.67;26.50;94428.53;5045809;28;20066;-42
2021/01/22 08:26:13;;;;;;;2.70;0.50;;;;;;;27.69;26.46;94426.59;5048629;28;20020;-40
2021/01/22 08:28:41;;;;;;;2.88;0.40;;;;;;;27.70;26.46;94418.56;5046532;28;20029;-42
2021/01/22 08:31:13;;;;;;;3.25;0.47;;;;;;;27.71;26.48;94414.09;5049211;28;20040;-38
2021/01/22 08:33:39;;;;;;;0.65;0.40;;;;;;;27.72;26.56;94423.66;5046874;28;20037;-36
2021/01/22 08:36:05;;;;;;;0.88;0.43;;;;;;;27.73;26.65;94412.16;5047248;28;20118;-40
2021/01/22 08:38:31;;;;;;;3.67;0.45;;;;;;;27.73;26.60;94412.97;5048302;28;20037;-38
2021/01/22 08:40:57;;;;;;;1.40;0.50;;;;;;;27.74;26.59;94412.00;5048461;28;20040;-39
2021/01/22 08:43:24;;;;;;;1.33;0.43;;;;;;;27.76;26.52;94411.81;5050399;28;20089;-40
2021/01/22 08:46:21;;;;;;;0.85;0.30;;;;;;;27.76;26.65;94412.66;5047483;28;20064;-38
2021/01/22 08:48:48;;;;;;;1.02;0.40;;;;;;;27.76;26.58;94396.03;5040880;28;20040;-35
2021/01/22 08:51:13;;;;;;;0.85;0.40;;;;;;;27.78;26.72;94388.84;5065517;28;20708;-39
2021/01/22 08:53:51;;;;;;;4.85;0.40;;;;;;;27.79;26.71;94395.75;5053449;28;20043;-41
2021/01/22 08:56:17;;;;;;;0.85;0.40;;;;;;;27.79;26.74;94395.75;5051047;28;20417;-41
2021/01/22 08:59:01;;;;;;;2.90;0.43;;;;;;;27.81;26.76;94396.44;5049622;28;21800;-41
2021/01/22 09:01:46;;;;;;;0.60;0.20;;;;;;;27.83;26.65;94397.09;5045163;28;20055;-41
2021/01/22 09:04:27;;;;;;;1.85;0.32;;;;;;;27.85;26.72;94394.31;5050448;28;20017;-40
2021/01/22 09:06:54;;;;;;;1.33;0.50;;;;;;;27.85;26.91;94400.41;5049244;28;20041;-37
2021/01/22 09:09:40;;;;;;;0.80;0.50;;;;;;;27.86;26.70;94399.44;5046328;28;20130;-37
2021/01/22 09:12:19;;;;;;;0.85;0.40;;;;;;;27.87;26.72;94402.88;5048567;28;20075;-41
2021/01/22 09:14:51;;;;;;;2.15;0.60;;;;;;;27.89;26.80;94390.41;5048807;28;20033;-39
2021/01/22 09:17:25;;;;;;;3.20;0.80;;;;;;;27.87;21.54;94402.88;5059480;28;20068;-39
2021/01/22 09:19:58;;;;;;;8.05;1.52;;;;;;;27.72;20.15;94394.72;5049266;28;20048;-34
2021/01/22 09:22:33;;;;;;;3.00;1.00;;;;;;;27.48;19.91;94398.75;5049607;28;20066;-40
2021/01/22 09:25:03;;;;;;;15.15;1.70;;;;;;;27.20;20.25;94391.75;5054969;28;20044;-34
2021/01/22 09:27:29;;;;;;;10.45;1.40;;;;;;;27.00;21.00;94393.66;5048948;28;20036;-37
2021/01/22 09:29:55;;;;;;;13.07;1.60;;;;;;;26.90;21.53;94398.13;5047272;28;23277;-38
2021/01/22 09:32:21;;;;;;;9.15;1.17;;;;;;;26.84;22.04;94399.53;5048610;28;20048;-34
2021/01/22 09:34:47;;;;;;;5.80;1.08;;;;;;;26.82;22.54;94389.19;5048101;28;20060;-36
2021/01/22 09:37:13;;;;;;;3.67;1.13;;;;;;;26.84;22.98;94384.59;5049160;28;20582;-36
2021/01/22 09:39:38;;;;;;;1.73;0.80;;;;;;;26.87;23.50;94386.94;5046397;28;20444;-37
2021/01/22 09:42:04;;;;;;;3.13;1.23;;;;;;;26.91;23.70;94391.88;5048862;28;20032;-43
2021/01/22 09:44:30;;;;;;;5.57;1.40;;;;;;;26.97;23.65;94393.97;5046006;28;20048;-41
2021/01/22 09:46:56;;;;;;;2.75;0.88;;;;;;;27.00;23.78;94397.13;5052543;28;20068;-40
2021/01/22 09:49:22;;;;;;;3.13;0.80;;;;;;;27.05;24.06;94396.69;5052349;28;20059;-40
2021/01/22 09:51:47;;;;;;;4.68;1.08;;;;;;;27.10;24.20;94390.97;5052762;28;20041;-40
2021/01/22 09:54:13;;;;;;;1.85;0.73;;;;;;;27.15;24.31;94398.44;5063012;28;20040;-41
2021/01/22 09:56:39;;;;;;;6.10;0.93;;;;;;;27.19;24.19;94394.53;5053626;28;20045;-34
2021/01/22 09:59:06;;;;;;;6.47;1.13;;;;;;;27.24;24.23;94389.66;5057625;28;20052;-39
2021/01/22 10:01:32;;;;;;;2.03;1.00;;;;;;;27.22;24.31;94386.34;5049163;28;20043;-37
2021/01/22 10:03:58;;;;;;;4.28;0.77;;;;;;;27.29;24.44;94390.03;5055992;28;20050;-37
2021/01/22 10:06:25;;;;;;;8.40;2.00;;;;;;;27.33;24.61;94393.19;5054909;28;20045;-35
2021/01/22 10:08:50;;;;;;;12.75;2.92;;;;;;;27.35;24.71;94389.41;5058140;28;20441;-42
2021/01/22 10:11:16;;;;;;;15.00;2.47;;;;;;;27.38;24.82;94378.59;5060335;28;20033;-36
2021/01/22 10:13:42;;;;;;;6.95;2.03;;;;;;;27.42;24.85;94373.06;5064025;28;20040;-37
2021/01/22 10:16:08;;;;;;;10.35;2.50;;;;;;;27.44;25.04;94378.97;5048957;28;20052;-40
2021/01/22 10:18:34;;;;;;;6.40;2.13;;;;;;;27.44;25.03;94376.34;5050981;28;20067;-41
2021/01/22 10:21:00;;;;;;;10.85;2.97;;;;;;;27.49;25.11;94374.09;5049593;28;20040;-39
2021/01/22 10:23:25;;;;;;;12.57;3.75;;;;;;;27.50;25.16;94370.50;5061893;28;20045;-37
2021/01/22 10:25:51;;;;;;;14.25;2.90;;;;;;;27.52;25.12;94373.78;5067033;28;20037;-40
2021/01/22 10:28:17;;;;;;;12.45;2.58;;;;;;;27.54;25.11;94369.22;5061493;28;20041;-41
2021/01/22 10:30:42;;;;;;;13.75;3.10;;;;;;;27.54;25.25;94366.59;5059145;28;20052;-38
2021/01/22 10:33:08;;;;;;;8.93;2.60;;;;;;;27.57;25.31;94376.78;5063903;28;20040;-39
2021/01/22 10:35:34;;;;;;;8.77;2.55;;;;;;;27.59;25.38;94371.38;5063261;28;20486;-40
2021/01/22 10:37:59;;;;;;;9.02;2.78;;;;;;;27.62;25.50;94371.94;5046231;28;20033;-40
2021/01/22 10:40:25;;;;;;;9.18;2.63;;;;;;;27.64;25.21;94383.16;5046679;28;20036;-42
2021/01/22 10:42:50;;;;;;;11.45;2.45;;;;;;;27.67;25.44;94375.91;5051561;28;20044;-38
2021/01/22 10:45:16;;;;;;;10.20;2.30;;;;;;;27.68;25.78;94367.06;5061032;28;20073;-37
2021/01/22 10:47:41;;;;;;;9.05;2.50;;;;;;;27.69;25.47;94369.50;5060517;28;20454;-37
2021/01/22 10:50:07;;;;;;;8.27;2.30;;;;;;;27.68;25.76;94353.91;5064138;28;20067;-40
2021/01/22 10:52:33;;;;;;;8.15;2.65;;;;;;;27.72;25.53;94365.78;5061853;28;20063;-37
2021/01/22 10:54:59;;;;;;;8.05;2.20;;;;;;;27.73;26.11;94356.91;5047949;28;20041;-37
2021/01/22 10:57:25;;;;;;;7.75;2.50;;;;;;;27.74;25.62;94366.44;5038757;28;20049;-39
2021/01/22 10:59:52;;;;;;;8.35;2.35;;;;;;;27.74;26.11;94350.66;5060737;28;20043;-38
2021/01/22 11:02:17;;;;;;;6.55;2.00;;;;;;;27.74;25.69;94358.53;5061533;28;20037;-41
2021/01/22 11:04:43;;;;;;;6.32;2.20;;;;;;;27.77;26.01;94366.13;5043864;28;20037;-37
2021/01/22 11:07:09;;;;;;;4.50;1.98;;;;;;;27.79;26.07;94366.78;5057278;28;20048;-37
2021/01/22 11:09:35;;;;;;;8.32;2.42;;;;;;;27.81;26.22;94364.03;5066170;28;20032;-36
2021/01/22 11:12:04;;;;;;;6.35;2.08;;;;;;;27.81;25.98;94356.97;5052389;28;20566;-41
2021/01/22 11:14:30;;;;;;;6.75;2.28;;;;;;;27.84;25.62;94351.38;5060250;28;20625;-39
2021/01/22 11:16:55;;;;;;;5.35;1.90;;;;;;;27.85;25.91;94352.22;5062344;28;20040;-34
2021/01/22 11:19:21;;;;;;;6.30;2.20;;;;;;;27.86;25.76;94352.06;5061887;28;20037;-34
2021/01/22 11:21:47;;;;;;;7.30;2.15;;;;;;;27.87;26.11;94348.44;5055998;28;20044;-39
2021/01/22 11:24:13;;;;;;;6.53;2.22;;;;;;;27.89;26.13;94346.47;5057982;28;20068;-38
2021/01/22 11:26:38;;;;;;;6.05;2.17;;;;;;;27.90;25.85;94350.78;5058229;28;20032;-41
2021/01/22 11:29:04;;;;;;;5.68;1.90;;;;;;;27.91;26.00;94352.41;5054346;28;20051;-40
2021/01/22 11:31:30;;;;;;;8.55;2.17;;;;;;;27.94;26.37;94350.44;5049395;28;20036;-36
2021/01/22 11:33:55;;;;;;;4.57;1.83;;;;;;;27.94;26.21;94340.75;5047010;28;20048;-36
2021/01/22 11:36:22;;;;;;;5.45;1.90;;;;;;;27.95;26.20;94337.13;5062504;28;20109;-37